Time;durP1;ratioP1;P1;durP2;ratioP2;P2;SDS_P1;SDS_P2;PMS_P1;PMS_P2;Temp;Humidity;BMP_temperature;BMP_pressure;BME280_temperature;BME280_humidity;BME280_pressure;Samples;Min_cycle;Max_cycle;Signal;HPM_P1;HPM_P2
2022/12/14 00:01:14;;;;;;;;;;;;;;;18.82;41.86;100982.02;102093;1326;61371;-83
2022/12/14 00:03:39;;;;;;;;;;;;;;;18.82;41.98;100980.94;102069;1332;72528;-84
2022/12/14 00:06:12;;;;;;;;;;;;;;;18.82;41.94;100983.76;102078;1317;61367;-83
2022/12/14 00:08:37;;;;;;;;;;;;;;;18.83;41.88;100984.10;102080;1329;61364;-84
2022/12/14 00:11:03;;;;;;;;;;;;;;;18.83;41.96;100984.45;102148;1326;61371;-84
2022/12/14 00:13:28;;;;;;;;;;;;;;;18.83;42.00;100983.93;102049;1329;61385;-83
2022/12/14 00:15:54;;;;;;;;;;;;;;;18.82;41.94;100983.40;102033;1310;61363;-84
2022/12/14 00:18:19;;;;;;;;;;;;;;;18.82;41.86;100987.87;102077;1319;61360;-84
2022/12/14 00:20:44;;;;;;;;;;;;;;;18.82;41.96;100990.71;102058;1326;61280;-83
2022/12/14 00:23:10;;;;;;;;;;;;;;;18.82;41.94;100988.58;102095;1326;61383;-84
2022/12/14 00:25:35;;;;;;;;;;;;;;;18.83;41.82;100987.85;102088;1317;61412;-84
2022/12/14 00:28:00;;;;;;;;;;;;;;;18.82;41.86;100990.54;102103;1326;61261;-84
2022/12/14 00:30:26;;;;;;;;;;;;;;;18.83;41.87;100993.02;102101;1330;74515;-83
2022/12/14 00:32:51;;;;;;;;;;;;;;;18.82;42.05;100997.13;102097;1334;61410;-84
2022/12/14 00:35:17;;;;;;;;;;;;;;;18.82;41.81;100998.77;102124;1327;61389;-84
2022/12/14 00:37:42;;;;;;;;;;;;;;;18.83;41.92;101002.48;102109;1330;61405;-83
2022/12/14 00:40:08;;;;;;;;;;;;;;;18.82;41.96;100998.06;102138;1326;61319;-83
2022/12/14 00:42:33;;;;;;;;;;;;;;;18.82;41.87;100996.42;102108;1326;74399;-84
2022/12/14 00:44:59;;;;;;;;;;;;;;;18.82;41.96;100990.19;102120;1318;61305;-83
2022/12/14 00:47:24;;;;;;;;;;;;;;;18.83;42.07;100988.39;102003;1329;61347;-82
2022/12/14 00:49:50;;;;;;;;;;;;;;;18.83;42.02;100992.13;102047;1327;61267;-83
2022/12/14 00:52:15;;;;;;;;;;;;;;;18.83;42.02;101002.11;102100;1330;61482;-82
2022/12/14 00:54:41;;;;;;;;;;;;;;;18.83;41.99;101013.50;102063;1326;61208;-82
2022/12/14 00:57:06;;;;;;;;;;;;;;;18.83;41.90;101011.21;102104;1326;61302;-83
2022/12/14 00:59:31;;;;;;;;;;;;;;;18.83;41.98;101009.21;102110;1332;61790;-83
2022/12/14 01:01:57;;;;;;;;;;;;;;;18.83;41.98;101007.08;102032;1329;61452;-82
2022/12/14 01:04:23;;;;;;;;;;;;;;;18.83;41.89;101002.80;102131;1318;61339;-83
2022/12/14 01:06:49;;;;;;;;;;;;;;;18.83;42.03;100996.19;102094;1324;74475;-83
2022/12/14 01:09:15;;;;;;;;;;;;;;;18.83;41.96;100993.70;102113;1326;61444;-83
2022/12/14 01:11:40;;;;;;;;;;;;;;;18.83;41.94;100994.39;102137;1320;61329;-83
2022/12/14 01:14:06;;;;;;;;;;;;;;;18.83;42.06;100988.71;102082;1326;61375;-83
2022/12/14 01:16:31;;;;;;;;;;;;;;;18.83;41.99;100990.30;102051;1317;60123;-82
2022/12/14 01:18:58;;;;;;;;;;;;;;;18.83;41.95;100988.02;102066;1329;61395;-83
2022/12/14 01:21:23;;;;;;;;;;;;;;;18.83;42.02;100990.67;102088;1313;61844;-83
2022/12/14 01:23:52;;;;;;;;;;;;;;;18.83;42.00;100995.29;102104;1332;61333;-83
2022/12/14 01:26:18;;;;;;;;;;;;;;;18.83;41.99;100996.52;102050;1320;73891;-84
2022/12/14 01:28:44;;;;;;;;;;;;;;;18.83;41.93;100996.37;102068;1327;61428;-84
2022/12/14 01:31:13;;;;;;;;;;;;;;;18.84;41.99;100995.27;102133;1326;61309;-83
2022/12/14 01:33:38;;;;;;;;;;;;;;;18.84;41.96;100990.42;102091;1327;61269;-84
2022/12/14 01:36:08;;;;;;;;;;;;;;;18.84;42.14;100983.14;102096;1326;61353;-83
2022/12/14 01:38:33;;;;;;;;;;;;;;;18.84;41.98;100979.05;102119;1319;75667;-83
2022/12/14 01:40:59;;;;;;;;;;;;;;;18.84;42.06;100973.50;102110;1330;61335;-83
2022/12/14 01:43:24;;;;;;;;;;;;;;;18.84;41.93;100984.01;102113;1326;61353;-84
2022/12/14 01:45:51;;;;;;;;;;;;;;;18.83;42.05;100984.57;102047;1327;61333;-84
2022/12/14 01:48:16;;;;;;;;;;;;;;;18.84;41.93;100987.39;102006;1317;61349;-82
2022/12/14 01:50:42;;;;;;;;;;;;;;;18.84;41.98;100990.98;102111;1333;61290;-82
2022/12/14 01:53:10;;;;;;;;;;;;;;;18.84;42.04;100994.70;102002;1329;61352;-84
2022/12/14 01:55:40;;;;;;;;;;;;;;;18.84;42.02;100993.11;102130;1327;61308;-83
2022/12/14 01:58:05;;;;;;;;;;;;;;;18.85;42.09;101000.05;102086;1326;71478;-83
2022/12/14 02:00:31;;;;;;;;;;;;;;;18.84;42.02;101009.50;102085;1326;61311;-85
2022/12/14 02:03:23;;;;;;;;;;;;;;;18.84;41.94;101011.64;102093;1310;61491;-83
2022/12/14 02:05:56;;;;;;;;;;;;;;;18.84;41.97;101007.74;102050;1326;61782;-83
2022/12/14 02:08:22;;;;;;;;;;;;;;;18.85;42.03;101006.80;102112;1326;73764;-83
2022/12/14 02:10:47;;;;;;;;;;;;;;;18.85;41.96;101005.20;102091;1330;61311;-85
2022/12/14 02:13:13;;;;;;;;;;;;;;;18.85;41.92;101006.27;102134;1324;61442;-83
2022/12/14 02:15:39;;;;;;;;;;;;;;;18.85;41.98;101006.43;102070;1330;61742;-83
2022/12/14 02:18:04;;;;;;;;;;;;;;;18.85;41.96;101000.76;102108;1316;61301;-82
2022/12/14 02:20:33;;;;;;;;;;;;;;;18.85;42.03;101002.52;102020;1321;72561;-83
2022/12/14 02:23:28;;;;;;;;;;;;;;;18.85;41.95;101007.50;102104;1327;74658;-83
2022/12/14 02:26:17;;;;;;;;;;;;;;;18.85;41.97;101008.91;101857;1332;61308;-83
2022/12/14 02:28:45;;;;;;;;;;;;;;;18.86;41.95;101013.34;102100;1323;61526;-83
2022/12/14 02:31:18;;;;;;;;;;;;;;;18.86;41.96;101009.08;102111;1319;72604;-83
2022/12/14 02:33:46;;;;;;;;;;;;;;;18.86;41.96;101013.52;102088;1330;75254;-83
2022/12/14 02:36:15;;;;;;;;;;;;;;;18.86;41.98;101019.02;102133;1326;61278;-82
2022/12/14 02:38:44;;;;;;;;;;;;;;;18.86;42.04;101021.17;102119;1326;61430;-83
2022/12/14 02:41:37;;;;;;;;;;;;;;;18.86;41.99;101014.92;102146;1326;73741;-83
2022/12/14 02:44:05;;;;;;;;;;;;;;;18.86;42.02;101007.63;101882;1332;74561;-84
2022/12/14 02:46:38;;;;;;;;;;;;;;;18.86;42.05;101005.66;102122;1323;61246;-82
2022/12/14 02:49:06;;;;;;;;;;;;;;;18.85;42.05;101006.95;102061;1318;61402;-82
2022/12/14 02:51:41;;;;;;;;;;;;;;;18.86;41.98;101003.52;102081;1326;72553;-83
2022/12/14 02:54:14;;;;;;;;;;;;;;;18.86;42.03;100999.03;102144;1326;73345;-83
2022/12/14 02:56:42;;;;;;;;;;;;;;;18.86;42.09;100995.66;102103;1317;61225;-82
2022/12/14 02:59:07;;;;;;;;;;;;;;;18.86;42.06;100992.43;102069;1333;61188;-84
2022/12/14 03:01:32;;;;;;;;;;;;;;;18.86;42.00;100984.23;102068;1329;61399;-83
2022/12/14 03:03:59;;;;;;;;;;;;;;;18.86;41.92;100976.21;102096;1325;61325;-83
2022/12/14 03:06:27;;;;;;;;;;;;;;;18.86;41.96;100979.25;102111;1326;61391;-83
2022/12/14 03:08:54;;;;;;;;;;;;;;;18.86;41.88;100973.71;102143;1326;61275;-83
2022/12/14 03:11:20;;;;;;;;;;;;;;;18.87;42.08;100974.95;102156;1327;61203;-82
2022/12/14 03:13:50;;;;;;;;;;;;;;;18.86;42.07;100974.80;102136;1320;61286;-83
2022/12/14 03:16:17;;;;;;;;;;;;;;;18.86;42.15;100974.60;102036;1310;61287;-83
2022/12/14 03:18:46;;;;;;;;;;;;;;;18.87;41.92;100983.14;102079;1329;61224;-83
2022/12/14 03:21:12;;;;;;;;;;;;;;;18.87;42.08;100986.35;102030;1326;72516;-83
2022/12/14 03:23:38;;;;;;;;;;;;;;;18.87;42.12;100992.05;102108;1329;74604;-84
2022/12/14 03:26:04;;;;;;;;;;;;;;;18.87;42.00;101001.33;102121;1326;61519;-84
2022/12/14 03:28:30;;;;;;;;;;;;;;;18.87;41.97;101007.02;102168;1326;61299;-84
2022/12/14 03:31:08;;;;;;;;;;;;;;;18.87;42.01;101009.36;102067;1326;61273;-83
2022/12/14 03:33:33;;;;;;;;;;;;;;;18.87;42.04;101017.55;102127;1326;75567;-83
2022/12/14 03:36:10;;;;;;;;;;;;;;;18.87;41.93;101016.30;102113;1326;61310;-85
2022/12/14 03:38:40;;;;;;;;;;;;;;;18.87;42.03;101013.61;102139;1326;61394;-83
2022/12/14 03:41:19;;;;;;;;;;;;;;;18.87;42.07;101014.69;102136;1327;72620;-83
2022/12/14 03:44:03;;;;;;;;;;;;;;;18.87;42.04;101012.36;102147;1326;74525;-84
2022/12/14 03:46:51;;;;;;;;;;;;;;;18.87;42.00;101007.38;102110;1326;61128;-83
2022/12/14 03:49:36;;;;;;;;;;;;;;;18.87;41.99;101001.30;102056;1310;61309;-83
2022/12/14 03:52:07;;;;;;;;;;;;;;;18.88;42.00;101000.92;102096;1317;72322;-83
2022/12/14 03:54:45;;;;;;;;;;;;;;;18.88;42.09;101002.55;102133;1332;74391;-82
2022/12/14 03:57:20;;;;;;;;;;;;;;;18.88;42.08;101004.14;102107;1326;61957;-83
2022/12/14 03:59:53;;;;;;;;;;;;;;;18.87;42.07;101005.23;102117;1326;61322;-84
2022/12/14 04:02:24;;;;;;;;;;;;;;;18.87;42.03;101003.44;102134;1325;72462;-84
2022/12/14 04:04:49;;;;;;;;;;;;;;;18.87;41.92;101007.19;101973;1327;73750;-85
2022/12/14 04:07:14;;;;;;;;;;;;;;;18.87;42.01;101011.48;102074;1317;61247;-82
2022/12/14 04:09:46;;;;;;;;;;;;;;;18.87;41.96;101012.17;102135;1326;61305;-83
2022/12/14 04:20:48;;;;;;;;;;;;;;;18.87;42.00;100986.15;102091;1330;61203;-82
2022/12/14 04:26:03;;;;;;;;;;;;;;;18.87;42.01;100981.14;102100;1332;72816;-83
2022/12/14 04:26:07;;;;;;;;;;;;;;;18.88;42.01;100981.32;102073;1317;75669;-83
2022/12/14 04:31:22;;;;;;;;;;;;;;;18.88;42.11;100985.76;102116;1326;61157;-83
2022/12/14 04:33:52;;;;;;;;;;;;;;;18.88;41.95;100984.87;102064;1326;61308;-84
2022/12/14 04:36:36;;;;;;;;;;;;;;;18.88;42.04;100985.75;101883;1328;74448;-83
2022/12/14 04:39:06;;;;;;;;;;;;;;;18.88;42.05;100988.26;102116;1318;61208;-83
2022/12/14 04:41:33;;;;;;;;;;;;;;;18.88;42.03;100989.49;102081;1329;61314;-83
2022/12/14 04:43:59;;;;;;;;;;;;;;;18.88;41.97;100985.77;102097;1325;73459;-83
2022/12/14 04:46:25;;;;;;;;;;;;;;;18.88;41.99;100983.98;102118;1326;61350;-83
2022/12/14 04:49:08;;;;;;;;;;;;;;;18.88;41.94;100976.48;102114;1326;61264;-83
2022/12/14 04:51:52;;;;;;;;;;;;;;;18.88;41.93;100973.64;102145;1326;61314;-83
2022/12/14 04:54:27;;;;;;;;;;;;;;;18.88;41.89;100978.83;102128;1326;73360;-83
2022/12/14 04:56:58;;;;;;;;;;;;;;;18.88;41.98;100982.02;102184;1326;74647;-85
2022/12/14 04:59:24;;;;;;;;;;;;;;;18.86;41.86;100977.12;102180;1326;61681;-84
2022/12/14 05:01:56;;;;;;;;;;;;;;;18.84;41.91;100977.78;102059;1329;61340;-84
2022/12/14 05:04:37;;;;;;;;;;;;;;;18.83;41.68;100981.42;102108;1326;72808;-84
2022/12/14 05:07:17;;;;;;;;;;;;;;;18.81;41.52;100985.64;102100;1323;75575;-85
2022/12/14 05:09:42;;;;;;;;;;;;;;;18.77;41.44;100984.58;102061;1327;61278;-84
2022/12/14 05:12:15;;;;;;;;;;;;;;;18.74;41.34;100985.30;102148;1326;61294;-84
2022/12/14 05:15:14;;;;;;;;;;;;;;;18.72;41.33;100991.84;102114;1326;72628;-84
2022/12/14 05:17:39;;;;;;;;;;;;;;;18.70;41.13;100985.89;101749;1323;74610;-83
2022/12/14 05:20:05;;;;;;;;;;;;;;;18.70;40.96;100987.70;101652;1324;59806;-84
2022/12/14 05:22:31;;;;;;;;;;;;;;;18.70;40.85;100983.94;101743;1338;61355;-83
2022/12/14 05:24:56;;;;;;;;;;;;;;;18.70;40.77;100987.83;101800;1332;61392;-83
2022/12/14 05:27:23;;;;;;;;;;;;;;;18.71;40.76;100989.61;101724;1316;61464;-82
2022/12/14 05:29:48;;;;;;;;;;;;;;;18.71;40.72;100996.34;101722;1322;61237;-83
2022/12/14 05:32:15;;;;;;;;;;;;;;;18.70;40.65;101001.25;101734;1323;61309;-82
2022/12/14 05:34:40;;;;;;;;;;;;;;;18.66;40.50;101009.52;101281;1319;61213;-83
2022/12/14 05:37:06;;;;;;;;;;;;;;;18.60;40.45;101008.40;101496;1323;61399;-83
2022/12/14 05:39:32;;;;;;;;;;;;;;;18.53;40.30;101013.24;101360;1332;61317;-83
2022/12/14 05:41:58;;;;;;;;;;;;;;;18.48;40.15;101016.03;101382;1316;61576;-83
2022/12/14 05:44:23;;;;;;;;;;;;;;;18.43;40.08;101012.77;101432;1324;61296;-83
2022/12/14 05:46:49;;;;;;;;;;;;;;;18.39;39.99;101012.61;101632;1320;61401;-82
2022/12/14 05:49:15;;;;;;;;;;;;;;;18.35;39.89;101015.02;101535;1319;72635;-83
2022/12/14 05:51:41;;;;;;;;;;;;;;;18.31;39.83;101015.23;101413;1316;62675;-81
2022/12/14 05:54:06;;;;;;;;;;;;;;;18.28;39.79;101020.70;101573;1316;61329;-82
2022/12/14 05:56:31;;;;;;;;;;;;;;;18.26;39.51;101023.48;101730;1310;61264;-82
2022/12/14 05:58:57;;;;;;;;;;;;;;;18.24;39.52;101025.56;101507;1311;61276;-83
2022/12/14 06:01:23;;;;;;;;;;;;;;;18.21;39.42;101021.98;101502;1313;61759;-83
2022/12/14 06:03:51;;;;;;;;;;;;;;;18.19;39.33;101024.98;101654;1317;61316;-83
2022/12/14 06:06:17;;;;;;;;;;;;;;;18.17;39.28;101023.47;101624;1314;61338;-84
2022/12/14 06:08:43;;;;;;;;;;;;;;;18.17;39.30;101023.64;101523;1310;61389;-83
2022/12/14 06:11:09;;;;;;;;;;;;;;;18.17;39.25;101019.90;101431;1319;61247;-83
2022/12/14 06:13:39;;;;;;;;;;;;;;;18.18;39.21;101016.80;102099;1317;61373;-82
2022/12/14 06:16:08;;;;;;;;;;;;;;;18.21;39.15;101013.42;101609;1310;61267;-82
2022/12/14 06:18:33;;;;;;;;;;;;;;;18.24;39.05;101014.86;101696;1310;61285;-82
2022/12/14 06:20:59;;;;;;;;;;;;;;;18.26;38.77;101018.14;101707;1310;61261;-83
2022/12/14 06:23:25;;;;;;;;;;;;;;;18.27;38.77;101020.94;102611;1316;61662;-82
2022/12/14 06:25:54;;;;;;;;;;;;;;;18.28;38.71;101026.08;101667;1317;61419;-82
2022/12/14 06:28:21;;;;;;;;;;;;;;;18.29;38.67;101028.52;101623;1310;61290;-83
2022/12/14 06:30:47;;;;;;;;;;;;;;;18.29;38.49;101024.61;101701;1310;73627;-84
2022/12/14 06:33:12;;;;;;;;;;;;;;;18.29;38.48;101014.83;101473;1319;61279;-82
2022/12/14 06:35:45;;;;;;;;;;;;;;;18.30;38.41;101017.05;101547;1310;63406;-82
2022/12/14 06:38:13;;;;;;;;;;;;;;;18.32;38.34;101022.84;101578;1311;61206;-82
2022/12/14 06:40:39;;;;;;;;;;;;;;;18.36;38.30;101021.34;101630;1310;71672;-81
2022/12/14 06:43:05;;;;;;;;;;;;;;;18.40;38.33;101015.25;101589;1310;61302;-84
2022/12/14 06:45:30;;;;;;;;;;;;;;;18.45;38.26;101019.61;101657;1316;61294;-83
2022/12/14 06:47:57;;;;;;;;;;;;;;;18.48;38.17;101020.35;101591;1317;61311;-84
2022/12/14 06:50:23;;;;;;;;;;;;;;;18.49;38.18;101016.86;101520;1310;61798;-83
2022/12/14 06:52:49;;;;;;;;;;;;;;;18.49;38.22;101007.11;101408;1310;61303;-83
2022/12/14 06:55:15;;;;;;;;;;;;;;;18.47;37.99;101002.77;101426;1317;61306;-84
2022/12/14 06:57:41;;;;;;;;;;;;;;;18.44;37.88;101002.39;101370;1310;61247;-83
2022/12/14 07:00:11;;;;;;;;;;;;;;;18.41;38.07;101008.95;101508;1317;61355;-83
2022/12/14 07:02:36;;;;;;;;;;;;;;;18.39;38.06;101003.33;101202;1318;74702;-83
2022/12/14 07:05:02;;;;;;;;;;;;;;;18.37;38.14;101011.83;101444;1313;63586;-82
2022/12/14 07:07:27;;;;;;;;;;;;;;;18.38;38.26;101021.60;101364;1317;61424;-82
2022/12/14 07:09:53;;;;;;;;;;;;;;;18.41;38.09;101021.25;101423;1315;61445;-82
2022/12/14 07:12:18;;;;;;;;;;;;;;;18.45;38.19;101024.42;101859;1312;60037;-82
2022/12/14 07:14:44;;;;;;;;;;;;;;;18.49;38.19;101027.76;102088;1318;72541;-82
2022/12/14 07:17:09;;;;;;;;;;;;;;;18.52;38.15;101027.02;102050;1317;61245;-83
2022/12/14 07:19:34;;;;;;;;;;;;;;;18.56;38.13;101034.80;102003;1310;61279;-83
2022/12/14 07:22:03;;;;;;;;;;;;;;;18.60;38.08;101024.64;102072;1314;61315;-83
2022/12/14 07:24:28;;;;;;;;;;;;;;;18.62;38.16;101025.57;102044;1318;61760;-83
2022/12/14 07:26:55;;;;;;;;;;;;;;;18.65;38.14;101030.23;101994;1317;61613;-82
2022/12/14 07:29:20;;;;;;;;;;;;;;;18.68;38.08;101027.06;101991;1313;61500;-83
2022/12/14 07:31:46;;;;;;;;;;;;;;;18.69;38.10;101014.64;101991;1313;61278;-84
2022/12/14 07:34:11;;;;;;;;;;;;;;;18.72;37.98;101032.11;102072;1310;61302;-83
2022/12/14 07:36:37;;;;;;;;;;;;;;;18.75;38.18;101028.44;102007;1321;61289;-82
2022/12/14 07:39:02;;;;;;;;;;;;;;;18.77;38.23;101039.13;102030;1316;61324;-83
2022/12/14 07:41:29;;;;;;;;;;;;;;;18.80;38.20;101035.07;101998;1321;61321;-83
2022/12/14 07:43:55;;;;;;;;;;;;;;;18.83;38.22;101039.02;102153;1327;59953;-83
2022/12/14 07:46:21;;;;;;;;;;;;;;;18.84;38.39;101040.71;101914;1319;61356;-83
2022/12/14 07:48:51;;;;;;;;;;;;;;;18.87;38.35;101033.27;101978;1317;60739;-83
2022/12/14 07:51:18;;;;;;;;;;;;;;;18.89;38.54;101039.23;102018;1317;62964;-84
2022/12/14 07:53:43;;;;;;;;;;;;;;;18.92;38.52;101045.11;102051;1316;60110;-83
2022/12/14 07:56:13;;;;;;;;;;;;;;;18.89;38.30;101041.89;101648;1317;61318;-83
2022/12/14 07:58:39;;;;;;;;;;;;;;;18.80;38.37;101041.67;102071;1317;73448;-83
2022/12/14 08:01:10;;;;;;;;;;;;;;;18.68;38.35;101046.07;102033;1318;60099;-82
2022/12/14 08:03:35;;;;;;;;;;;;;;;18.58;38.53;101052.90;102131;1310;61149;-82
2022/12/14 08:06:05;;;;;;;;;;;;;;;18.52;38.42;101048.45;101994;1313;61277;-82
2022/12/14 08:08:30;;;;;;;;;;;;;;;18.49;38.30;101047.52;102127;1314;74654;-83
2022/12/14 08:10:57;;;;;;;;;;;;;;;18.50;38.37;101041.95;101967;1313;59895;-84
2022/12/14 08:13:23;;;;;;;;;;;;;;;18.50;38.27;101042.50;102075;1320;61394;-83
2022/12/14 08:15:49;;;;;;;;;;;;;;;18.48;38.35;101048.49;102095;1316;60087;-83
2022/12/14 08:18:15;;;;;;;;;;;;;;;18.48;38.47;101046.15;101737;1317;671208;-83
2022/12/14 08:20:40;;;;;;;;;;;;;;;18.51;38.40;101042.23;102189;1309;61421;-81
2022/12/14 08:23:06;;;;;;;;;;;;;;;18.54;38.45;101046.00;102174;1314;59386;-82
2022/12/14 08:25:31;;;;;;;;;;;;;;;18.58;38.51;101045.77;102204;1310;61316;-82
2022/12/14 08:27:57;;;;;;;;;;;;;;;18.62;38.44;101049.98;102255;1317;60203;-82
2022/12/14 08:30:23;;;;;;;;;;;;;;;18.66;38.49;101043.91;102155;1317;60019;-82
2022/12/14 08:32:48;;;;;;;;;;;;;;;18.70;38.46;101039.73;102022;1320;61220;-82
2022/12/14 08:35:13;;;;;;;;;;;;;;;18.73;38.49;101045.07;102099;1316;61309;-83
2022/12/14 08:37:39;;;;;;;;;;;;;;;18.77;38.54;101048.09;102110;1317;61985;-81
2022/12/14 08:40:04;;;;;;;;;;;;;;;18.80;38.61;101044.73;102154;1314;61386;-82
2022/12/14 08:42:30;;;;;;;;;;;;;;;18.82;38.68;101043.50;102217;1317;59483;-82
2022/12/14 08:44:55;;;;;;;;;;;;;;;18.85;38.50;101048.52;102104;1318;61341;-82
2022/12/14 08:47:21;;;;;;;;;;;;;;;18.87;38.69;101046.08;101996;1321;59786;-82
2022/12/14 08:49:46;;;;;;;;;;;;;;;18.89;38.71;101045.83;102139;1318;61180;-82
2022/12/14 08:52:12;;;;;;;;;;;;;;;18.91;38.78;101038.36;102092;1317;61267;-82
2022/12/14 08:54:37;;;;;;;;;;;;;;;18.93;38.77;101035.06;102059;1310;61420;-82
2022/12/14 08:57:03;;;;;;;;;;;;;;;18.95;38.85;101024.46;102034;1318;61285;-83
2022/12/14 08:59:28;;;;;;;;;;;;;;;18.97;38.81;101018.65;102152;1311;61072;-83
2022/12/14 09:01:54;;;;;;;;;;;;;;;18.98;38.87;101012.31;102117;1310;61327;-84
2022/12/14 09:04:19;;;;;;;;;;;;;;;18.99;38.83;101013.83;102116;1318;59658;-83
2022/12/14 09:06:45;;;;;;;;;;;;;;;18.85;38.38;101003.43;102727;1334;59433;-83
2022/12/14 09:09:10;;;;;;;;;;;;;;;18.57;38.56;101001.08;102818;1320;59430;-82
2022/12/14 09:11:36;;;;;;;;;;;;;;;18.53;38.69;101005.80;102897;1317;60126;-83
2022/12/14 09:14:01;;;;;;;;;;;;;;;18.48;38.84;101006.21;102861;1310;60397;-83
2022/12/14 09:16:28;;;;;;;;;;;;;;;18.47;38.78;101009.36;102819;1318;60340;-83
2022/12/14 09:18:54;;;;;;;;;;;;;;;18.45;39.04;101010.55;102932;1317;60124;-83
2022/12/14 09:21:19;;;;;;;;;;;;;;;18.44;38.82;101008.06;102926;1319;59679;-82
2022/12/14 09:23:45;;;;;;;;;;;;;;;18.46;38.93;101007.78;102982;1317;59019;-82
2022/12/14 09:26:11;;;;;;;;;;;;;;;18.50;38.92;100999.73;102917;1318;60399;-82
2022/12/14 09:28:37;;;;;;;;;;;;;;;18.53;39.04;100991.69;102859;1324;59659;-82
2022/12/14 09:31:04;;;;;;;;;;;;;;;18.55;38.99;100987.48;101919;1317;60066;-82
2022/12/14 09:33:29;;;;;;;;;;;;;;;18.59;38.94;100978.86;101533;1316;61414;-82
2022/12/14 09:36:02;;;;;;;;;;;;;;;18.63;39.09;100966.20;101658;1316;61407;-83
2022/12/14 09:38:28;;;;;;;;;;;;;;;18.67;39.00;100958.13;102976;1318;72799;-81
2022/12/14 09:40:57;;;;;;;;;;;;;;;18.71;39.13;100952.85;102990;1316;60258;-83
2022/12/14 09:43:42;;;;;;;;;;;;;;;18.76;39.20;100954.16;101670;1313;61243;-83
2022/12/14 09:46:17;;;;;;;;;;;;;;;18.81;39.14;100958.36;101605;1317;61601;-81
2022/12/14 09:48:42;;;;;;;;;;;;;;;18.82;39.43;100970.41;101534;1310;74530;-82
2022/12/14 09:51:11;;;;;;;;;;;;;;;18.78;39.32;100966.89;101599;1316;61423;-81
2022/12/14 09:53:36;;;;;;;;;;;;;;;18.74;39.25;100964.43;101664;1317;61272;-84
2022/12/14 09:56:03;;;;;;;;;;;;;;;18.73;39.11;100963.78;101515;1318;61327;-81
2022/12/14 09:58:28;;;;;;;;;;;;;;;18.72;39.19;100964.20;101454;1313;61773;-82
2022/12/14 10:04:11;;;;;;;;;;;;;;;18.69;39.33;100954.39;101137;1322;61310;-83
2022/12/14 10:06:48;;;;;;;;;;;;;;;18.68;39.33;100945.04;101172;1322;63365;-83
2022/12/14 10:09:14;;;;;;;;;;;;;;;18.58;39.51;100939.51;101086;1323;70588;-84
2022/12/14 10:11:43;;;;;;;;;;;;;;;18.47;39.16;100939.85;101037;1319;61323;-83
2022/12/14 10:14:21;;;;;;;;;;;;;;;18.37;39.42;100940.23;100929;1316;61390;-83
2022/12/14 10:16:52;;;;;;;;;;;;;;;18.35;39.40;100940.17;101318;1322;62068;-84
2022/12/14 10:19:24;;;;;;;;;;;;;;;18.36;39.47;100934.37;101383;1323;73509;-84
2022/12/14 10:21:52;;;;;;;;;;;;;;;18.40;39.28;100935.20;101274;1324;77883;-85
2022/12/14 10:24:19;;;;;;;;;;;;;;;18.39;39.11;100933.34;101383;1318;61583;-84
2022/12/14 10:26:49;;;;;;;;;;;;;;;18.30;39.18;100922.64;101150;1325;61274;-83
2022/12/14 10:29:20;;;;;;;;;;;;;;;18.26;39.09;100927.30;101046;1332;73554;-84
2022/12/14 10:31:52;;;;;;;;;;;;;;;18.24;39.18;100933.64;101596;1322;75664;-84
2022/12/14 10:34:19;;;;;;;;;;;;;;;18.22;39.03;100931.99;101053;1322;61309;-84
2022/12/14 10:36:50;;;;;;;;;;;;;;;18.19;38.79;100927.67;101169;1322;60695;-84
2022/12/14 10:39:19;;;;;;;;;;;;;;;18.14;38.90;100916.20;101293;1324;71988;-82
2022/12/14 10:41:50;;;;;;;;;;;;;;;18.14;38.75;100916.39;101351;1317;75673;-85
2022/12/14 10:44:25;;;;;;;;;;;;;;;18.13;38.69;100916.27;101642;1316;61319;-81
2022/12/14 10:46:54;;;;;;;;;;;;;;;18.12;38.55;100908.70;101642;1317;61345;-81
2022/12/14 10:49:37;;;;;;;;;;;;;;;18.13;38.67;100909.14;101475;1313;72448;-81
2022/12/14 10:52:04;;;;;;;;;;;;;;;18.19;38.70;100905.59;101499;1313;75540;-82
2022/12/14 10:54:31;;;;;;;;;;;;;;;18.25;38.49;100904.34;101617;1310;61219;-83
2022/12/14 10:56:56;;;;;;;;;;;;;;;18.30;38.62;100896.06;101587;1310;61153;-82
2022/12/14 10:59:24;;;;;;;;;;;;;;;18.33;38.55;100899.98;101586;1310;61516;-84
2022/12/14 11:02:12;;;;;;;;;;;;;;;18.28;38.46;100900.09;101493;1310;74420;-84
2022/12/14 11:04:38;;;;;;;;;;;;;;;18.00;38.09;100906.84;101443;1316;60153;-83
2022/12/14 11:07:05;;;;;;;;;;;;;;;17.56;37.96;100917.11;101553;1317;61303;-82
2022/12/14 11:09:31;;;;;;;;;;;;;;;17.40;38.37;100915.48;102977;1317;59440;-84
2022/12/14 11:11:57;;;;;;;;;;;;;;;17.44;38.45;100914.73;101625;1314;61380;-83
2022/12/14 11:14:23;;;;;;;;;;;;;;;17.52;38.45;100913.75;101593;1310;61264;-84
2022/12/14 11:16:49;;;;;;;;;;;;;;;17.59;38.39;100914.58;101430;1317;61353;-83
2022/12/14 11:19:17;;;;;;;;;;;;;;;17.69;38.43;100915.34;101394;1313;61395;-83
2022/12/14 11:21:45;;;;;;;;;;;;;;;17.73;38.32;100907.77;101371;1318;61341;-83
2022/12/14 11:24:25;;;;;;;;;;;;;;;17.74;38.44;100908.44;101514;1318;61077;-83
2022/12/14 11:26:51;;;;;;;;;;;;;;;17.80;38.51;100901.71;101693;1314;61585;-83
2022/12/14 11:29:26;;;;;;;;;;;;;;;17.84;38.40;100881.91;101475;1317;61542;-83
2022/12/14 11:31:51;;;;;;;;;;;;;;;17.87;38.50;100861.77;101553;1316;75593;-82
2022/12/14 11:34:29;;;;;;;;;;;;;;;17.91;38.45;100858.20;101497;1317;61306;-83
2022/12/14 11:36:55;;;;;;;;;;;;;;;17.93;38.31;100862.39;101672;1316;63111;-82
2022/12/14 11:39:22;;;;;;;;;;;;;;;17.92;38.40;100858.16;101630;1317;61204;-82
2022/12/14 11:41:58;;;;;;;;;;;;;;;17.90;38.40;100855.77;101597;1321;61240;-83
2022/12/14 11:44:25;;;;;;;;;;;;;;;17.89;38.28;100854.88;101639;1319;61220;-83
2022/12/14 11:46:57;;;;;;;;;;;;;;;17.88;38.26;100855.52;101732;1316;61318;-83
2022/12/14 11:49:22;;;;;;;;;;;;;;;17.87;38.20;100850.90;101533;1316;72329;-83
2022/12/14 11:52:01;;;;;;;;;;;;;;;17.89;38.19;100846.89;101530;1310;61414;-83
2022/12/14 11:54:27;;;;;;;;;;;;;;;17.91;38.08;100837.36;101597;1316;61299;-83
2022/12/14 11:56:58;;;;;;;;;;;;;;;17.93;38.22;100829.98;101529;1316;61324;-83
2022/12/14 11:59:23;;;;;;;;;;;;;;;17.88;37.99;100831.66;101444;1311;73565;-83
2022/12/14 12:01:49;;;;;;;;;;;;;;;17.74;38.11;100833.17;101230;1317;61337;-83
2022/12/14 12:04:14;;;;;;;;;;;;;;;17.64;38.12;100840.13;101635;1326;61407;-84
2022/12/14 12:06:40;;;;;;;;;;;;;;;17.47;38.09;100844.96;102408;1330;59823;-83
2022/12/14 12:09:21;;;;;;;;;;;;;;;17.42;38.33;100854.46;102063;1322;59504;-84
2022/12/14 12:11:47;;;;;;;;;;;;;;;17.40;38.09;100854.27;102569;1325;72478;-85
2022/12/14 12:14:34;;;;;;;;;;;;;;;17.32;38.27;100854.15;102403;1327;59430;-85
2022/12/14 12:17:01;;;;;;;;;;;;;;;17.31;38.24;100847.80;102107;1316;61331;-84
2022/12/14 12:19:34;;;;;;;;;;;;;;;17.21;38.08;100844.08;102249;1330;61327;-83
2022/12/14 12:21:59;;;;;;;;;;;;;;;17.17;38.18;100840.91;102851;1326;72284;-85
2022/12/14 12:24:29;;;;;;;;;;;;;;;17.17;38.16;100833.07;102963;1329;59195;-84
2022/12/14 12:26:56;;;;;;;;;;;;;;;17.16;38.08;100838.63;103054;1334;60006;-84
2022/12/14 12:29:39;;;;;;;;;;;;;;;17.16;38.21;100838.13;103011;1333;59295;-84
2022/12/14 12:32:06;;;;;;;;;;;;;;;17.18;38.16;100840.69;102521;1333;73758;-83
2022/12/14 12:34:36;;;;;;;;;;;;;;;17.21;38.36;100844.23;102213;1326;75659;-84
2022/12/14 12:37:05;;;;;;;;;;;;;;;17.25;38.33;100843.10;102075;1326;61241;-85
2022/12/14 12:39:33;;;;;;;;;;;;;;;17.31;38.42;100837.50;102594;1324;61206;-82
2022/12/14 12:42:02;;;;;;;;;;;;;;;17.34;38.35;100830.73;102040;1327;72590;-84
2022/12/14 12:44:40;;;;;;;;;;;;;;;17.40;38.35;100837.54;102126;1324;74718;-83
2022/12/14 12:47:18;;;;;;;;;;;;;;;17.47;38.28;100832.50;102183;1329;61158;-84